sensor_id;sensor_type;location;lat;lon;timestamp;P1;durP1;ratioP1;P2;durP2;ratioP2
37477;SDS011;23334;54.316;10.182;2023-03-01T00:01:00;27.60;;;14.80;;
37477;SDS011;23334;54.316;10.182;2023-03-01T00:03:27;30.83;;;14.40;;
37477;SDS011;23334;54.316;10.182;2023-03-01T00:05:53;28.90;;;14.00;;
37477;SDS011;23334;54.316;10.182;2023-03-01T00:08:18;31.80;;;14.10;;
37477;SDS011;23334;54.316;10.182;2023-03-01T00:10:44;28.70;;;13.27;;
37477;SDS011;23334;54.316;10.182;2023-03-01T00:13:09;26.30;;;14.27;;
37477;SDS011;23334;54.316;10.182;2023-03-01T00:15:37;29.37;;;13.70;;
37477;SDS011;23334;54.316;10.182;2023-03-01T00:18:04;31.87;;;13.47;;
37477;SDS011;23334;54.316;10.182;2023-03-01T00:20:29;26.93;;;12.50;;
37477;SDS011;23334;54.316;10.182;2023-03-01T00:22:55;31.10;;;14.60;;
37477;SDS011;23334;54.316;10.182;2023-03-01T00:25:20;29.50;;;14.00;;
37477;SDS011;23334;54.316;10.182;2023-03-01T00:27:46;29.20;;;14.50;;
37477;SDS011;23334;54.316;10.182;2023-03-01T00:30:15;32.97;;;15.00;;
37477;SDS011;23334;54.316;10.182;2023-03-01T00:32:42;39.00;;;13.70;;
37477;SDS011;23334;54.316;10.182;2023-03-01T00:35:08;29.23;;;13.43;;
37477;SDS011;23334;54.316;10.182;2023-03-01T00:37:35;26.00;;;13.50;;
37477;SDS011;23334;54.316;10.182;2023-03-01T00:40:01;24.60;;;13.10;;
37477;SDS011;23334;54.316;10.182;2023-03-01T00:42:26;31.43;;;13.20;;
37477;SDS011;23334;54.316;10.182;2023-03-01T00:44:52;25.40;;;14.23;;
37477;SDS011;23334;54.316;10.182;2023-03-01T00:47:17;31.20;;;13.17;;
37477;SDS011;23334;54.316;10.182;2023-03-01T00:49:42;25.40;;;13.57;;
37477;SDS011;23334;54.316;10.182;2023-03-01T00:52:08;31.67;;;12.40;;
37477;SDS011;23334;54.316;10.182;2023-03-01T00:54:34;28.80;;;13.53;;
37477;SDS011;23334;54.316;10.182;2023-03-01T00:56:59;26.33;;;12.70;;
37477;SDS011;23334;54.316;10.182;2023-03-01T00:59:25;25.73;;;12.17;;
37477;SDS011;23334;54.316;10.182;2023-03-01T01:01:51;22.23;;;12.20;;
37477;SDS011;23334;54.316;10.182;2023-03-01T01:04:17;21.23;;;11.23;;
37477;SDS011;23334;54.316;10.182;2023-03-01T01:06:45;22.80;;;12.37;;
37477;SDS011;23334;54.316;10.182;2023-03-01T01:09:13;25.47;;;12.80;;
37477;SDS011;23334;54.316;10.182;2023-03-01T01:11:44;29.97;;;12.90;;
37477;SDS011;23334;54.316;10.182;2023-03-01T01:14:13;27.13;;;13.60;;
37477;SDS011;23334;54.316;10.182;2023-03-01T01:16:40;25.00;;;13.67;;
37477;SDS011;23334;54.316;10.182;2023-03-01T01:19:06;24.57;;;12.90;;
37477;SDS011;23334;54.316;10.182;2023-03-01T01:21:32;22.97;;;13.00;;
37477;SDS011;23334;54.316;10.182;2023-03-01T01:23:58;28.27;;;11.93;;
37477;SDS011;23334;54.316;10.182;2023-03-01T01:26:25;29.57;;;13.30;;
37477;SDS011;23334;54.316;10.182;2023-03-01T01:28:55;23.63;;;13.90;;
37477;SDS011;23334;54.316;10.182;2023-03-01T01:31:21;30.63;;;13.70;;
37477;SDS011;23334;54.316;10.182;2023-03-01T01:33:48;29.17;;;13.50;;
37477;SDS011;23334;54.316;10.182;2023-03-01T01:36:15;23.87;;;12.87;;
37477;SDS011;23334;54.316;10.182;2023-03-01T01:38:41;23.93;;;12.30;;
37477;SDS011;23334;54.316;10.182;2023-03-01T01:41:07;21.53;;;12.40;;
37477;SDS011;23334;54.316;10.182;2023-03-01T01:43:37;26.00;;;11.70;;
37477;SDS011;23334;54.316;10.182;2023-03-01T01:48:56;26.97;;;13.10;;
37477;SDS011;23334;54.316;10.182;2023-03-01T01:51:29;21.93;;;11.27;;
37477;SDS011;23334;54.316;10.182;2023-03-01T01:54:03;19.77;;;10.37;;
37477;SDS011;23334;54.316;10.182;2023-03-01T01:56:37;23.43;;;11.70;;
37477;SDS011;23334;54.316;10.182;2023-03-01T01:59:09;20.80;;;11.63;;
37477;SDS011;23334;54.316;10.182;2023-03-01T02:01:34;20.37;;;11.13;;
37477;SDS011;23334;54.316;10.182;2023-03-01T02:04:01;19.13;;;10.47;;
37477;SDS011;23334;54.316;10.182;2023-03-01T02:06:29;22.70;;;12.43;;
37477;SDS011;23334;54.316;10.182;2023-03-01T02:08:59;19.30;;;11.23;;
37477;SDS011;23334;54.316;10.182;2023-03-01T02:11:27;26.23;;;11.63;;
37477;SDS011;23334;54.316;10.182;2023-03-01T02:13:54;25.40;;;11.90;;
37477;SDS011;23334;54.316;10.182;2023-03-01T02:16:20;27.03;;;11.57;;
37477;SDS011;23334;54.316;10.182;2023-03-01T02:18:46;29.47;;;12.40;;
37477;SDS011;23334;54.316;10.182;2023-03-01T02:21:25;30.83;;;12.00;;
37477;SDS011;23334;54.316;10.182;2023-03-01T02:24:06;24.57;;;12.03;;
37477;SDS011;23334;54.316;10.182;2023-03-01T02:26:42;32.37;;;11.83;;
37477;SDS011;23334;54.316;10.182;2023-03-01T02:29:13;23.30;;;10.93;;
37477;SDS011;23334;54.316;10.182;2023-03-01T02:31:38;24.23;;;11.60;;
37477;SDS011;23334;54.316;10.182;2023-03-01T02:34:09;24.90;;;10.57;;
37477;SDS011;23334;54.316;10.182;2023-03-01T02:36:38;40.70;;;11.27;;
37477;SDS011;23334;54.316;10.182;2023-03-01T02:39:11;32.03;;;12.10;;
37477;SDS011;23334;54.316;10.182;2023-03-01T02:41:45;36.83;;;12.80;;
37477;SDS011;23334;54.316;10.182;2023-03-01T02:44:14;59.83;;;11.40;;
37477;SDS011;23334;54.316;10.182;2023-03-01T02:46:44;22.77;;;10.90;;
37477;SDS011;23334;54.316;10.182;2023-03-01T02:49:18;31.40;;;11.47;;
37477;SDS011;23334;54.316;10.182;2023-03-01T02:51:54;59.17;;;10.63;;
37477;SDS011;23334;54.316;10.182;2023-03-01T02:55:16;65.27;;;11.43;;
37477;SDS011;23334;54.316;10.182;2023-03-01T02:57:37;46.00;;;11.30;;
37477;SDS011;23334;54.316;10.182;2023-03-01T03:00:17;26.53;;;10.20;;
37477;SDS011;23334;54.316;10.182;2023-03-01T03:02:49;24.37;;;10.17;;
37477;SDS011;23334;54.316;10.182;2023-03-01T03:05:24;28.30;;;9.60;;
37477;SDS011;23334;54.316;10.182;2023-03-01T03:07:52;23.77;;;10.30;;
37477;SDS011;23334;54.316;10.182;2023-03-01T03:10:20;27.43;;;10.37;;
37477;SDS011;23334;54.316;10.182;2023-03-01T03:12:53;28.50;;;10.67;;
37477;SDS011;23334;54.316;10.182;2023-03-01T03:15:21;31.20;;;10.30;;
37477;SDS011;23334;54.316;10.182;2023-03-01T03:17:48;21.53;;;10.07;;
37477;SDS011;23334;54.316;10.182;2023-03-01T03:20:16;27.77;;;10.40;;
37477;SDS011;23334;54.316;10.182;2023-03-01T03:22:49;21.80;;;9.90;;
37477;SDS011;23334;54.316;10.182;2023-03-01T03:25:16;28.40;;;10.30;;
37477;SDS011;23334;54.316;10.182;2023-03-01T03:27:43;27.43;;;9.40;;
37477;SDS011;23334;54.316;10.182;2023-03-01T03:30:11;34.53;;;11.10;;
37477;SDS011;23334;54.316;10.182;2023-03-01T03:32:39;24.30;;;9.30;;
37477;SDS011;23334;54.316;10.182;2023-03-01T03:35:05;24.33;;;9.40;;
37477;SDS011;23334;54.316;10.182;2023-03-01T03:37:37;35.23;;;9.50;;
37477;SDS011;23334;54.316;10.182;2023-03-01T03:40:24;35.63;;;9.10;;
37477;SDS011;23334;54.316;10.182;2023-03-01T03:42:50;32.43;;;9.27;;
37477;SDS011;23334;54.316;10.182;2023-03-01T03:45:16;25.87;;;9.37;;
37477;SDS011;23334;54.316;10.182;2023-03-01T03:47:43;22.30;;;8.93;;
37477;SDS011;23334;54.316;10.182;2023-03-01T03:50:11;42.90;;;8.70;;
37477;SDS011;23334;54.316;10.182;2023-03-01T03:52:39;27.03;;;9.07;;
37477;SDS011;23334;54.316;10.182;2023-03-01T03:55:05;25.93;;;8.30;;
37477;SDS011;23334;54.316;10.182;2023-03-01T03:57:36;16.13;;;9.23;;
37477;SDS011;23334;54.316;10.182;2023-03-01T04:00:03;33.10;;;9.30;;
37477;SDS011;23334;54.316;10.182;2023-03-01T04:02:30;27.67;;;9.57;;
37477;SDS011;23334;54.316;10.182;2023-03-01T04:04:56;25.83;;;9.87;;
37477;SDS011;23334;54.316;10.182;2023-03-01T04:07:21;24.23;;;8.90;;
37477;SDS011;23334;54.316;10.182;2023-03-01T04:09:47;19.20;;;10.00;;
37477;SDS011;23334;54.316;10.182;2023-03-01T04:12:12;22.63;;;8.87;;
37477;SDS011;23334;54.316;10.182;2023-03-01T04:14:38;30.07;;;8.83;;
37477;SDS011;23334;54.316;10.182;2023-03-01T04:17:03;32.57;;;10.50;;
37477;SDS011;23334;54.316;10.182;2023-03-01T04:19:30;32.13;;;9.70;;
37477;SDS011;23334;54.316;10.182;2023-03-01T04:22:01;44.37;;;10.43;;
37477;SDS011;23334;54.316;10.182;2023-03-01T04:24:34;38.77;;;10.87;;
37477;SDS011;23334;54.316;10.182;2023-03-01T04:27:00;36.97;;;10.43;;
37477;SDS011;23334;54.316;10.182;2023-03-01T04:29:26;22.50;;;8.23;;
37477;SDS011;23334;54.316;10.182;2023-03-01T04:31:52;24.30;;;9.17;;
37477;SDS011;23334;54.316;10.182;2023-03-01T04:34:17;52.83;;;10.00;;
37477;SDS011;23334;54.316;10.182;2023-03-01T04:36:43;34.30;;;9.23;;
37477;SDS011;23334;54.316;10.182;2023-03-01T04:39:09;22.07;;;8.07;;
37477;SDS011;23334;54.316;10.182;2023-03-01T04:41:37;20.60;;;8.63;;
37477;SDS011;23334;54.316;10.182;2023-03-01T04:44:04;29.50;;;9.87;;
37477;SDS011;23334;54.316;10.182;2023-03-01T04:46:30;26.53;;;8.30;;
37477;SDS011;23334;54.316;10.182;2023-03-01T04:48:57;36.27;;;9.60;;
37477;SDS011;23334;54.316;10.182;2023-03-01T04:51:23;21.97;;;9.20;;
37477;SDS011;23334;54.316;10.182;2023-03-01T04:53:48;17.30;;;8.67;;
37477;SDS011;23334;54.316;10.182;2023-03-01T04:56:14;20.10;;;10.27;;
37477;SDS011;23334;54.316;10.182;2023-03-01T04:58:41;22.40;;;8.80;;
37477;SDS011;23334;54.316;10.182;2023-03-01T05:01:17;23.57;;;9.30;;
37477;SDS011;23334;54.316;10.182;2023-03-01T05:03:44;16.93;;;8.20;;
37477;SDS011;23334;54.316;10.182;2023-03-01T05:06:14;33.30;;;8.20;;
37477;SDS011;23334;54.316;10.182;2023-03-01T05:08:41;46.93;;;8.57;;
37477;SDS011;23334;54.316;10.182;2023-03-01T05:11:08;29.50;;;8.57;;
37477;SDS011;23334;54.316;10.182;2023-03-01T05:13:34;26.80;;;7.80;;
37477;SDS011;23334;54.316;10.182;2023-03-01T05:16:00;42.33;;;8.97;;
37477;SDS011;23334;54.316;10.182;2023-03-01T05:18:28;23.60;;;8.80;;
37477;SDS011;23334;54.316;10.182;2023-03-01T05:20:55;40.57;;;8.67;;
37477;SDS011;23334;54.316;10.182;2023-03-01T05:23:28;35.27;;;7.63;;
37477;SDS011;23334;54.316;10.182;2023-03-01T05:25:53;38.93;;;7.40;;
37477;SDS011;23334;54.316;10.182;2023-03-01T05:28:20;23.53;;;8.00;;
37477;SDS011;23334;54.316;10.182;2023-03-01T05:30:46;47.60;;;8.60;;
37477;SDS011;23334;54.316;10.182;2023-03-01T05:33:12;41.77;;;7.77;;
37477;SDS011;23334;54.316;10.182;2023-03-01T05:35:41;14.83;;;7.90;;
37477;SDS011;23334;54.316;10.182;2023-03-01T05:38:07;41.47;;;8.50;;
37477;SDS011;23334;54.316;10.182;2023-03-01T05:40:40;19.20;;;7.73;;
37477;SDS011;23334;54.316;10.182;2023-03-01T05:43:09;27.53;;;7.90;;
37477;SDS011;23334;54.316;10.182;2023-03-01T05:45:36;14.97;;;6.87;;
37477;SDS011;23334;54.316;10.182;2023-03-01T05:48:03;20.90;;;7.57;;
37477;SDS011;23334;54.316;10.182;2023-03-01T05:50:31;40.80;;;7.93;;
37477;SDS011;23334;54.316;10.182;2023-03-01T05:53:32;13.57;;;7.10;;
37477;SDS011;23334;54.316;10.182;2023-03-01T05:55:51;28.37;;;7.40;;
37477;SDS011;23334;54.316;10.182;2023-03-01T05:58:18;19.20;;;7.10;;
37477;SDS011;23334;54.316;10.182;2023-03-01T06:00:45;13.83;;;7.30;;
37477;SDS011;23334;54.316;10.182;2023-03-01T06:03:13;76.27;;;8.37;;
37477;SDS011;23334;54.316;10.182;2023-03-01T06:05:40;25.23;;;7.20;;
37477;SDS011;23334;54.316;10.182;2023-03-01T06:08:07;14.27;;;7.20;;
37477;SDS011;23334;54.316;10.182;2023-03-01T06:10:34;29.03;;;8.13;;
37477;SDS011;23334;54.316;10.182;2023-03-01T06:12:59;13.50;;;7.57;;
37477;SDS011;23334;54.316;10.182;2023-03-01T06:15:25;29.63;;;8.00;;
37477;SDS011;23334;54.316;10.182;2023-03-01T06:17:51;52.87;;;7.90;;
37477;SDS011;23334;54.316;10.182;2023-03-01T06:20:20;73.17;;;8.87;;
37477;SDS011;23334;54.316;10.182;2023-03-01T06:22:47;45.53;;;8.10;;
37477;SDS011;23334;54.316;10.182;2023-03-01T06:25:14;28.83;;;7.67;;
37477;SDS011;23334;54.316;10.182;2023-03-01T06:27:42;20.20;;;7.97;;
37477;SDS011;23334;54.316;10.182;2023-03-01T06:30:09;18.70;;;7.80;;
37477;SDS011;23334;54.316;10.182;2023-03-01T06:32:36;23.67;;;8.37;;
37477;SDS011;23334;54.316;10.182;2023-03-01T06:35:03;28.80;;;8.07;;
37477;SDS011;23334;54.316;10.182;2023-03-01T06:37:30;19.13;;;7.80;;
37477;SDS011;23334;54.316;10.182;2023-03-01T06:39:55;44.13;;;8.30;;
37477;SDS011;23334;54.316;10.182;2023-03-01T06:42:21;15.60;;;6.97;;
37477;SDS011;23334;54.316;10.182;2023-03-01T06:44:46;18.83;;;7.23;;
37477;SDS011;23334;54.316;10.182;2023-03-01T06:47:12;16.30;;;7.43;;
37477;SDS011;23334;54.316;10.182;2023-03-01T06:49:39;33.13;;;6.80;;
37477;SDS011;23334;54.316;10.182;2023-03-01T06:52:04;12.53;;;6.80;;
37477;SDS011;23334;54.316;10.182;2023-03-01T06:54:30;15.47;;;7.73;;
37477;SDS011;23334;54.316;10.182;2023-03-01T06:56:55;26.63;;;7.93;;
37477;SDS011;23334;54.316;10.182;2023-03-01T06:59:20;25.20;;;7.63;;
37477;SDS011;23334;54.316;10.182;2023-03-01T07:01:46;16.57;;;8.77;;
37477;SDS011;23334;54.316;10.182;2023-03-01T07:04:12;23.93;;;7.40;;
37477;SDS011;23334;54.316;10.182;2023-03-01T07:06:39;22.73;;;7.40;;
37477;SDS011;23334;54.316;10.182;2023-03-01T07:09:05;26.93;;;7.40;;
37477;SDS011;23334;54.316;10.182;2023-03-01T07:11:31;17.30;;;6.93;;
37477;SDS011;23334;54.316;10.182;2023-03-01T07:13:56;20.53;;;7.20;;
37477;SDS011;23334;54.316;10.182;2023-03-01T07:16:23;29.27;;;7.20;;
37477;SDS011;23334;54.316;10.182;2023-03-01T07:18:48;13.57;;;6.97;;
37477;SDS011;23334;54.316;10.182;2023-03-01T07:21:14;22.40;;;6.60;;
37477;SDS011;23334;54.316;10.182;2023-03-01T07:23:41;19.37;;;6.80;;
37477;SDS011;23334;54.316;10.182;2023-03-01T07:26:07;11.30;;;5.90;;
37477;SDS011;23334;54.316;10.182;2023-03-01T07:28:32;15.87;;;6.60;;
37477;SDS011;23334;54.316;10.182;2023-03-01T07:31:04;30.53;;;6.37;;
37477;SDS011;23334;54.316;10.182;2023-03-01T07:33:31;17.17;;;6.47;;
37477;SDS011;23334;54.316;10.182;2023-03-01T07:35:58;9.07;;;5.77;;
37477;SDS011;23334;54.316;10.182;2023-03-01T07:38:24;14.83;;;6.33;;
37477;SDS011;23334;54.316;10.182;2023-03-01T07:40:51;16.50;;;6.67;;
37477;SDS011;23334;54.316;10.182;2023-03-01T07:43:16;15.83;;;6.07;;
37477;SDS011;23334;54.316;10.182;2023-03-01T07:45:42;19.80;;;7.23;;
37477;SDS011;23334;54.316;10.182;2023-03-01T07:48:07;14.73;;;7.60;;
37477;SDS011;23334;54.316;10.182;2023-03-01T07:50:33;13.77;;;7.40;;
37477;SDS011;23334;54.316;10.182;2023-03-01T07:52:59;15.20;;;8.70;;
37477;SDS011;23334;54.316;10.182;2023-03-01T07:55:24;18.03;;;8.80;;
37477;SDS011;23334;54.316;10.182;2023-03-01T07:57:50;13.43;;;8.10;;
37477;SDS011;23334;54.316;10.182;2023-03-01T08:00:15;24.37;;;7.53;;
37477;SDS011;23334;54.316;10.182;2023-03-01T08:02:41;11.00;;;7.13;;
37477;SDS011;23334;54.316;10.182;2023-03-01T08:05:07;17.00;;;5.97;;
37477;SDS011;23334;54.316;10.182;2023-03-01T08:07:35;11.70;;;6.00;;
37477;SDS011;23334;54.316;10.182;2023-03-01T08:10:00;15.37;;;6.20;;
37477;SDS011;23334;54.316;10.182;2023-03-01T08:12:26;8.73;;;5.70;;
37477;SDS011;23334;54.316;10.182;2023-03-01T08:14:53;10.77;;;5.57;;
37477;SDS011;23334;54.316;10.182;2023-03-01T08:17:18;13.80;;;4.67;;
37477;SDS011;23334;54.316;10.182;2023-03-01T08:19:47;8.60;;;5.13;;
37477;SDS011;23334;54.316;10.182;2023-03-01T08:22:12;5.47;;;4.17;;
37477;SDS011;23334;54.316;10.182;2023-03-01T08:24:38;7.93;;;4.73;;
37477;SDS011;23334;54.316;10.182;2023-03-01T08:27:03;10.60;;;6.07;;
37477;SDS011;23334;54.316;10.182;2023-03-01T08:29:31;9.00;;;5.13;;
37477;SDS011;23334;54.316;10.182;2023-03-01T08:31:57;7.97;;;5.10;;
37477;SDS011;23334;54.316;10.182;2023-03-01T08:34:23;7.60;;;5.40;;
37477;SDS011;23334;54.316;10.182;2023-03-01T08:36:48;7.50;;;4.90;;
37477;SDS011;23334;54.316;10.182;2023-03-01T08:39:17;8.27;;;5.47;;
37477;SDS011;23334;54.316;10.182;2023-03-01T08:41:44;8.43;;;5.50;;
37477;SDS011;23334;54.316;10.182;2023-03-01T08:44:11;23.33;;;6.77;;
37477;SDS011;23334;54.316;10.182;2023-03-01T08:46:41;15.37;;;7.30;;
37477;SDS011;23334;54.316;10.182;2023-03-01T08:49:10;11.07;;;6.47;;
37477;SDS011;23334;54.316;10.182;2023-03-01T08:51:41;12.03;;;6.80;;
37477;SDS011;23334;54.316;10.182;2023-03-01T08:54:09;9.67;;;6.40;;
37477;SDS011;23334;54.316;10.182;2023-03-01T08:56:38;9.33;;;6.20;;
37477;SDS011;23334;54.316;10.182;2023-03-01T08:59:03;8.13;;;5.67;;
37477;SDS011;23334;54.316;10.182;2023-03-01T09:01:29;6.77;;;5.40;;
37477;SDS011;23334;54.316;10.182;2023-03-01T09:03:55;14.30;;;5.83;;
37477;SDS011;23334;54.316;10.182;2023-03-01T09:06:20;8.83;;;5.37;;
37477;SDS011;23334;54.316;10.182;2023-03-01T09:08:47;8.00;;;5.97;;
37477;SDS011;23334;54.316;10.182;2023-03-01T09:11:14;16.00;;;5.90;;
37477;SDS011;23334;54.316;10.182;2023-03-01T09:13:42;8.07;;;5.67;;
37477;SDS011;23334;54.316;10.182;2023-03-01T09:16:08;23.57;;;6.00;;
37477;SDS011;23334;54.316;10.182;2023-03-01T09:18:35;33.17;;;7.03;;
37477;SDS011;23334;54.316;10.182;2023-03-01T09:21:04;14.67;;;5.63;;
37477;SDS011;23334;54.316;10.182;2023-03-01T09:23:35;9.80;;;6.03;;
37477;SDS011;23334;54.316;10.182;2023-03-01T09:26:03;36.87;;;6.60;;
37477;SDS011;23334;54.316;10.182;2023-03-01T09:28:30;25.37;;;6.47;;
37477;SDS011;23334;54.316;10.182;2023-03-01T09:30:59;22.07;;;5.87;;
37477;SDS011;23334;54.316;10.182;2023-03-01T09:33:26;12.50;;;7.53;;
37477;SDS011;23334;54.316;10.182;2023-03-01T09:36:00;15.13;;;6.53;;
37477;SDS011;23334;54.316;10.182;2023-03-01T09:38:27;12.07;;;5.50;;
37477;SDS011;23334;54.316;10.182;2023-03-01T09:40:53;9.23;;;6.43;;
37477;SDS011;23334;54.316;10.182;2023-03-01T09:43:21;8.53;;;6.57;;
37477;SDS011;23334;54.316;10.182;2023-03-01T09:46:09;7.13;;;5.70;;
37477;SDS011;23334;54.316;10.182;2023-03-01T09:48:38;9.60;;;5.97;;
37477;SDS011;23334;54.316;10.182;2023-03-01T09:51:15;10.10;;;6.30;;
37477;SDS011;23334;54.316;10.182;2023-03-01T09:53:49;7.03;;;5.43;;
37477;SDS011;23334;54.316;10.182;2023-03-01T09:56:19;7.33;;;5.60;;
37477;SDS011;23334;54.316;10.182;2023-03-01T09:58:58;11.50;;;5.80;;
37477;SDS011;23334;54.316;10.182;2023-03-01T10:01:30;10.37;;;6.47;;
37477;SDS011;23334;54.316;10.182;2023-03-01T10:04:02;17.47;;;6.53;;
37477;SDS011;23334;54.316;10.182;2023-03-01T10:06:43;11.00;;;5.97;;
37477;SDS011;23334;54.316;10.182;2023-03-01T10:09:17;6.10;;;5.47;;
37477;SDS011;23334;54.316;10.182;2023-03-01T10:11:48;6.70;;;5.80;;
37477;SDS011;23334;54.316;10.182;2023-03-01T10:17:00;8.70;;;5.67;;
37477;SDS011;23334;54.316;10.182;2023-03-01T10:19:42;9.47;;;6.80;;
37477;SDS011;23334;54.316;10.182;2023-03-01T10:22:19;9.23;;;6.67;;
37477;SDS011;23334;54.316;10.182;2023-03-01T10:24:57;9.33;;;6.90;;
37477;SDS011;23334;54.316;10.182;2023-03-01T10:30:13;12.00;;;6.03;;
37477;SDS011;23334;54.316;10.182;2023-03-01T10:32:44;8.07;;;6.10;;
37477;SDS011;23334;54.316;10.182;2023-03-01T10:35:31;8.00;;;6.27;;
37477;SDS011;23334;54.316;10.182;2023-03-01T10:38:03;10.20;;;7.00;;
37477;SDS011;23334;54.316;10.182;2023-03-01T10:40:31;9.73;;;7.30;;
37477;SDS011;23334;54.316;10.182;2023-03-01T10:42:58;8.77;;;6.37;;
37477;SDS011;23334;54.316;10.182;2023-03-01T10:50:38;10.50;;;7.10;;
37477;SDS011;23334;54.316;10.182;2023-03-01T10:53:09;11.73;;;6.80;;
37477;SDS011;23334;54.316;10.182;2023-03-01T10:56:02;11.43;;;7.40;;
37477;SDS011;23334;54.316;10.182;2023-03-01T10:58:37;10.63;;;6.50;;
37477;SDS011;23334;54.316;10.182;2023-03-01T11:01:05;11.30;;;6.97;;
37477;SDS011;23334;54.316;10.182;2023-03-01T11:03:40;10.70;;;7.40;;
37477;SDS011;23334;54.316;10.182;2023-03-01T11:08:47;9.50;;;6.70;;
37477;SDS011;23334;54.316;10.182;2023-03-01T11:11:19;8.70;;;6.70;;
37477;SDS011;23334;54.316;10.182;2023-03-01T11:14:24;12.50;;;7.63;;
37477;SDS011;23334;54.316;10.182;2023-03-01T11:16:47;8.97;;;6.63;;
37477;SDS011;23334;54.316;10.182;2023-03-01T11:19:19;12.00;;;6.20;;
37477;SDS011;23334;54.316;10.182;2023-03-01T11:22:00;8.83;;;6.43;;
37477;SDS011;23334;54.316;10.182;2023-03-01T11:24:42;8.77;;;6.10;;
37477;SDS011;23334;54.316;10.182;2023-03-01T11:27:33;10.53;;;6.83;;
37477;SDS011;23334;54.316;10.182;2023-03-01T11:30:03;9.60;;;6.63;;
37477;SDS011;23334;54.316;10.182;2023-03-01T11:32:42;8.27;;;6.03;;
37477;SDS011;23334;54.316;10.182;2023-03-01T11:35:20;6.47;;;5.80;;
37477;SDS011;23334;54.316;10.182;2023-03-01T11:37:59;9.17;;;5.60;;
37477;SDS011;23334;54.316;10.182;2023-03-01T11:40:38;7.47;;;5.60;;
37477;SDS011;23334;54.316;10.182;2023-03-01T11:52:11;10.90;;;5.50;;
37477;SDS011;23334;54.316;10.182;2023-03-01T11:54:52;8.50;;;5.63;;
37477;SDS011;23334;54.316;10.182;2023-03-01T12:00:24;10.27;;;5.70;;
37477;SDS011;23334;54.316;10.182;2023-03-01T12:06:09;6.47;;;5.70;;
37477;SDS011;23334;54.316;10.182;2023-03-01T12:08:58;10.20;;;5.97;;
37477;SDS011;23334;54.316;10.182;2023-03-01T12:14:07;6.77;;;5.80;;
37477;SDS011;23334;54.316;10.182;2023-03-01T12:38:58;8.77;;;6.70;;
37477;SDS011;23334;54.316;10.182;2023-03-01T12:44:22;6.87;;;5.63;;
37477;SDS011;23334;54.316;10.182;2023-03-01T12:47:14;7.90;;;5.40;;
37477;SDS011;23334;54.316;10.182;2023-03-01T12:49:48;7.03;;;5.53;;
37477;SDS011;23334;54.316;10.182;2023-03-01T12:52:23;6.67;;;5.93;;
37477;SDS011;23334;54.316;10.182;2023-03-01T12:54:58;6.70;;;5.27;;
37477;SDS011;23334;54.316;10.182;2023-03-01T12:57:29;7.40;;;5.60;;
37477;SDS011;23334;54.316;10.182;2023-03-01T13:02:48;10.30;;;5.00;;
37477;SDS011;23334;54.316;10.182;2023-03-01T13:08:20;5.93;;;5.33;;
37477;SDS011;23334;54.316;10.182;2023-03-01T13:10:56;6.67;;;5.30;;
37477;SDS011;23334;54.316;10.182;2023-03-01T13:13:26;6.20;;;5.60;;
37477;SDS011;23334;54.316;10.182;2023-03-01T13:15:53;5.37;;;4.87;;
37477;SDS011;23334;54.316;10.182;2023-03-01T13:20:50;6.10;;;5.50;;
37477;SDS011;23334;54.316;10.182;2023-03-01T13:33:58;6.37;;;5.23;;
37477;SDS011;23334;54.316;10.182;2023-03-01T13:38:58;8.80;;;6.30;;
37477;SDS011;23334;54.316;10.182;2023-03-01T13:46:46;9.63;;;7.03;;
37477;SDS011;23334;54.316;10.182;2023-03-01T13:49:14;10.90;;;6.87;;
37477;SDS011;23334;54.316;10.182;2023-03-01T13:51:42;7.07;;;5.60;;
37477;SDS011;23334;54.316;10.182;2023-03-01T13:54:12;10.33;;;7.33;;
37477;SDS011;23334;54.316;10.182;2023-03-01T13:56:40;10.27;;;6.70;;
37477;SDS011;23334;54.316;10.182;2023-03-01T13:59:12;8.47;;;6.40;;
37477;SDS011;23334;54.316;10.182;2023-03-01T14:01:43;9.83;;;7.50;;
37477;SDS011;23334;54.316;10.182;2023-03-01T14:09:37;9.00;;;7.60;;
37477;SDS011;23334;54.316;10.182;2023-03-01T14:15:20;11.80;;;7.20;;
37477;SDS011;23334;54.316;10.182;2023-03-01T14:20:25;10.00;;;7.20;;
37477;SDS011;23334;54.316;10.182;2023-03-01T14:22:54;10.13;;;7.27;;
37477;SDS011;23334;54.316;10.182;2023-03-01T14:25:32;18.80;;;8.90;;
37477;SDS011;23334;54.316;10.182;2023-03-01T14:28:02;13.90;;;8.10;;
37477;SDS011;23334;54.316;10.182;2023-03-01T14:30:50;12.63;;;8.73;;
37477;SDS011;23334;54.316;10.182;2023-03-01T14:33:25;10.23;;;7.03;;
37477;SDS011;23334;54.316;10.182;2023-03-01T14:36:10;12.70;;;6.97;;
37477;SDS011;23334;54.316;10.182;2023-03-01T14:38:38;10.20;;;6.27;;
37477;SDS011;23334;54.316;10.182;2023-03-01T14:41:15;10.63;;;6.87;;
37477;SDS011;23334;54.316;10.182;2023-03-01T14:44:11;13.37;;;7.50;;
37477;SDS011;23334;54.316;10.182;2023-03-01T14:46:40;11.80;;;5.90;;
37477;SDS011;23334;54.316;10.182;2023-03-01T14:49:15;9.33;;;6.77;;
37477;SDS011;23334;54.316;10.182;2023-03-01T14:51:59;13.57;;;6.53;;
37477;SDS011;23334;54.316;10.182;2023-03-01T14:57:14;14.53;;;6.70;;
37477;SDS011;23334;54.316;10.182;2023-03-01T14:59:49;12.63;;;7.07;;
37477;SDS011;23334;54.316;10.182;2023-03-01T15:02:19;12.90;;;6.70;;
37477;SDS011;23334;54.316;10.182;2023-03-01T15:04:49;13.50;;;8.00;;
37477;SDS011;23334;54.316;10.182;2023-03-01T15:07:17;16.53;;;8.10;;
37477;SDS011;23334;54.316;10.182;2023-03-01T15:09:44;19.53;;;8.20;;
37477;SDS011;23334;54.316;10.182;2023-03-01T15:12:34;14.47;;;7.90;;
37477;SDS011;23334;54.316;10.182;2023-03-01T15:15:00;18.07;;;8.10;;
37477;SDS011;23334;54.316;10.182;2023-03-01T15:17:31;16.67;;;7.63;;
37477;SDS011;23334;54.316;10.182;2023-03-01T15:19:59;10.77;;;7.53;;
37477;SDS011;23334;54.316;10.182;2023-03-01T15:22:28;22.23;;;7.50;;
37477;SDS011;23334;54.316;10.182;2023-03-01T15:24:53;17.70;;;8.20;;
37477;SDS011;23334;54.316;10.182;2023-03-01T15:27:21;23.97;;;8.47;;
37477;SDS011;23334;54.316;10.182;2023-03-01T15:29:49;19.43;;;8.80;;
37477;SDS011;23334;54.316;10.182;2023-03-01T15:32:33;23.67;;;7.77;;
37477;SDS011;23334;54.316;10.182;2023-03-01T15:38:04;15.97;;;8.30;;
37477;SDS011;23334;54.316;10.182;2023-03-01T15:40:30;21.40;;;8.53;;
37477;SDS011;23334;54.316;10.182;2023-03-01T15:42:59;20.30;;;11.07;;
37477;SDS011;23334;54.316;10.182;2023-03-01T15:45:30;31.57;;;8.23;;
37477;SDS011;23334;54.316;10.182;2023-03-01T15:48:02;20.90;;;10.20;;
37477;SDS011;23334;54.316;10.182;2023-03-01T15:50:31;18.03;;;8.10;;
37477;SDS011;23334;54.316;10.182;2023-03-01T15:52:58;14.80;;;8.20;;
37477;SDS011;23334;54.316;10.182;2023-03-01T15:55:26;16.17;;;8.20;;
37477;SDS011;23334;54.316;10.182;2023-03-01T15:57:58;14.83;;;6.80;;
37477;SDS011;23334;54.316;10.182;2023-03-01T16:00:26;13.83;;;8.23;;
37477;SDS011;23334;54.316;10.182;2023-03-01T16:02:52;31.53;;;7.50;;
37477;SDS011;23334;54.316;10.182;2023-03-01T16:05:19;17.90;;;7.50;;
37477;SDS011;23334;54.316;10.182;2023-03-01T16:07:45;18.40;;;7.97;;
37477;SDS011;23334;54.316;10.182;2023-03-01T16:10:10;23.50;;;9.93;;
37477;SDS011;23334;54.316;10.182;2023-03-01T16:12:37;35.63;;;13.23;;
37477;SDS011;23334;54.316;10.182;2023-03-01T16:15:04;14.60;;;8.60;;
37477;SDS011;23334;54.316;10.182;2023-03-01T16:17:38;19.90;;;9.50;;